CMA CGM Columba — 2DBC9 — position and weather

sailwx.info

Track history (hours):
 
Tides and Currents Weather Stations Pressure Air Temp Water Temp Dewpoint Dewpoint Depression Visibility Wind Speed Wind Dir Waves Ship Positions

CMA CGM Columba

Last reported at 2015-Jul-24 14:26 UTC. Time now 2015-Aug-03 02:42 UTC.
Position N 30°42' E 032°21'.
Warning: this ship's position is 9 days out of date.

Length 363 m; draft 15.4 m.

Type: Ship (hazmat cat A). MMSI: 235077448.

Date/timePositionNaut miles runAvg speedWind from/ knotsBaromVisibWave heightAir tempDewpointWater temp
2015-Jul-24 14:26N 30°42' E 032°21'1010.4
2015-Jul-24 13:28N 30°52' E 032°19'1010.6
2015-Jul-24 12:33N 31°02' E 032°19'10 9.6
2015-Jul-24 11:33N 31°12' E 032°20'9 8.4
2015-Jul-24 10:31N 31°20' E 032°23'7 6.7
2015-Jul-24 09:32N 31°26' E 032°21'1 0.1
2015-Jul-24 01:32N 31°27' E 032°20'0 0.0
2015-Jul-23 23:29N 31°27' E 032°20'0 0.0
2015-Jul-23 20:32N 31°27' E 032°20'0 0.1
2015-Jul-23 19:32N 31°27' E 032°20'0 0.1
2015-Jul-23 18:26N 31°27' E 032°20'0 0.0
2015-Jul-23 17:32N 31°27' E 032°20'4 1.9
2015-Jul-23 15:33N 31°30' E 032°21'1611.5
2015-Jul-23 14:09N 31°42' E 032°34'712.3
2015-Jul-23 13:33N 31°49' E 032°38'1313.2
2015-Jul-23 12:33N 31°60' E 032°47'1313.4
2015-Jul-23 11:33N 32°11' E 032°55'1612.8
2015-Jul-23 10:20N 32°24' E 033°06'1012.5
2015-Jul-23 09:33N 32°32' E 033°12'1212.3
2015-Jul-23 08:33N 32°42' E 033°21'1212.5
2015-Jul-23 07:33N 32°52' E 033°29'1212.3
2015-Jul-23 06:33N 33°03' E 033°37'1212.3
2015-Jul-23 05:33N 33°13' E 033°45'1212.5
2015-Jul-23 04:33N 33°19' E 033°58'1312.7
2015-Jul-23 03:33N 33°26' E 034°11'1312.9
2015-Jul-23 02:33N 33°32' E 034°25'1312.9
2015-Jul-23 01:33N 33°39' E 034°38'1313.1
2015-Jul-23 00:33N 33°45' E 034°52'1313.2
2015-Jul-22 23:33N 33°52' E 035°05'1312.6
2015-Jul-22 22:33N 33°56' E 035°20'1111.1
2015-Jul-22 21:33N 33°55' E 035°33'1 0.4
2015-Jul-22 20:22N 33°55' E 035°32'0 0.0
2015-Jul-22 19:31N 33°55' E 035°32'0 0.0
2015-Jul-22 18:28N 33°55' E 035°32'0 0.0
2015-Jul-22 17:31N 33°55' E 035°32'0 0.0
2015-Jul-22 16:31N 33°55' E 035°32'0 0.0
2015-Jul-22 15:31N 33°55' E 035°32'0 0.0
2015-Jul-22 09:04N 33°55' E 035°32'0 0.0
2015-Jul-22 03:16N 33°55' E 035°32'0 0.0
2015-Jul-22 02:31N 33°55' E 035°32'0 0.0
2015-Jul-22 01:31N 33°55' E 035°32'0 0.0
2015-Jul-22 00:25N 33°55' E 035°32'0 0.0
2015-Jul-21 23:31N 33°55' E 035°32'0 0.0
2015-Jul-21 21:25N 33°55' E 035°32'0 0.0
2015-Jul-21 20:31N 33°55' E 035°32'0 0.0
2015-Jul-21 04:28N 33°55' E 035°32'1 0.9
2015-Jul-21 03:26N 33°55' E 035°32'2 2.0
2015-Jul-21 02:33N 33°56' E 035°30'13 6.0
2015-Jul-21 00:21N 33°54' E 035°14'1518.6
2015-Jul-20 23:33N 33°54' E 034°56'1818.7
2015-Jul-20 22:33N 33°56' E 034°34'1918.9
2015-Jul-20 21:33N 33°57' E 034°11'1919.1
2015-Jul-20 20:33N 33°59' E 033°48'1919.4
2015-Jul-20 19:33N 34°00' E 033°25'1919.2
2015-Jul-20 18:33N 34°02' E 033°02'2019.7
2015-Jul-20 17:33N 34°03' E 032°38'2019.6
2015-Jul-20 16:33N 34°05' E 032°15'1919.1
2015-Jul-20 15:33N 34°06' E 031°52'1919.1
2015-Jul-20 14:33N 34°08' E 031°29'1919.0
2015-Jul-20 13:33N 34°09' E 031°06'1919.1
2015-Jul-20 12:33N 34°11' E 030°43'1919.0
2015-Jul-20 11:33N 34°12' E 030°20'1919.4
2015-Jul-20 10:33N 34°14' E 029°57'1919.4
2015-Jul-20 09:33N 34°15' E 029°33'2019.5
2015-Jul-20 08:33N 34°17' E 029°09'2019.8
2015-Jul-20 07:33N 34°19' E 028°45'2720.7
2015-Jul-20 06:14N 34°21' E 028°13'1420.1
2015-Jul-20 05:33N 34°22' E 027°56'2020.1
2015-Jul-20 04:33N 34°23' E 027°32'56719.5
2015-Jul-18 23:30N 36°03' E 016°09'1919.7
2015-Jul-18 22:32N 36°07' E 015°46'2019.5
2015-Jul-18 21:30N 36°10' E 015°21'1819.4
2015-Jul-18 20:33N 36°14' E 014°59'1919.7
2015-Jul-18 19:34N 36°19' E 014°36'2019.9
2015-Jul-18 18:34N 36°26' E 014°13'2019.8
2015-Jul-18 17:34N 36°32' E 013°49'2020.1
2015-Jul-18 16:34N 36°40' E 013°26'2020.0
2015-Jul-18 15:34N 36°47' E 013°03'2020.2
2015-Jul-18 14:34N 36°54' E 012°39'2020.5
2015-Jul-18 13:34N 37°01' E 012°15'2019.8
2015-Jul-18 12:34N 37°08' E 011°52'2019.5
2015-Jul-18 11:34N 37°15' E 011°29'2019.5
2015-Jul-18 10:33N 37°23' E 011°06'2020.0
2015-Jul-18 09:34N 37°28' E 010°42'2020.2
2015-Jul-18 08:33N 37°33' E 010°17'2020.2
2015-Jul-18 07:34N 37°32' E 009°52'2020.3
2015-Jul-18 06:33N 37°27' E 009°27'2020.3
2015-Jul-18 05:33N 37°22' E 009°02'4120.3
2015-Jul-18 03:31N 37°18' E 008°11'2020.6
2015-Jul-18 02:33N 37°18' E 007°45'2820.5
2015-Jul-18 01:10N 37°19' E 007°10'5220.0
2015-Jul-17 22:33N 37°16' E 006°04'6820.6
2015-Jul-17 19:15N 37°09' E 004°39'1420.0
2015-Jul-17 18:33N 37°08' E 004°22'2020.1
2015-Jul-17 17:33N 37°06' E 003°57'2120.4
2015-Jul-17 16:32N 37°04' E 003°30'1920.1
2015-Jul-17 15:33N 37°01' E 003°06'2020.3
2015-Jul-17 14:34N 36°57' E 002°41'1919.3
2015-Jul-17 13:33N 36°55' E 002°17'1919.1
2015-Jul-17 12:33N 36°52' E 001°54'2019.4
2015-Jul-17 11:32N 36°49' E 001°29'2020.0
2015-Jul-17 10:33N 36°46' E 001°05'2019.9
2015-Jul-17 09:33N 36°43' E 000°40'2019.6
2015-Jul-17 08:33N 36°40' E 000°16'2019.7
2015-Jul-17 07:33N 36°37' W 000°08'1919.5
2015-Jul-17 06:33N 36°34' W 000°32'1919.2
2015-Jul-17 05:34N 36°31' W 000°55'1919.0
2015-Jul-17 04:33N 36°28' W 001°19'1919.1
2015-Jul-17 03:34N 36°25' W 001°42'1919.3
2015-Jul-17 02:34N 36°22' W 002°06'2019.8
2015-Jul-17 01:34N 36°19' W 002°30'2019.8
2015-Jul-17 00:33N 36°15' W 002°54'2220.0
2015-Jul-16 23:28N 36°12' W 003°21'1820.1
2015-Jul-16 22:33N 36°10' W 003°43'20220.0
2015-Jul-16 12:25N 36°15' W 007°54'1820.0
2015-Jul-16 11:31N 36°21' W 008°15'2020.4
2015-Jul-16 10:33N 36°27' W 008°39'2020.1
2015-Jul-16 09:33N 36°31' W 009°03'1919.3
2015-Jul-16 08:33N 36°40' W 009°24'2019.9
2015-Jul-16 07:33N 36°58' W 009°36'2120.7
2015-Jul-16 06:33N 37°18' W 009°43'2020.2
2015-Jul-16 05:33N 37°37' W 009°49'2120.5
2015-Jul-16 04:33N 37°58' W 009°54'2020.6
2015-Jul-16 03:33N 38°18' W 009°59'2020.4
2015-Jul-16 02:34N 38°38' W 010°05'2020.2
2015-Jul-16 01:34N 38°58' W 010°07'2120.4
2015-Jul-16 00:33N 39°18' W 010°08'2320.8
2015-Jul-15 23:27N 39°41' W 010°07'1820.6
2015-Jul-15 22:33N 39°60' W 010°05'2120.6
2015-Jul-15 21:33N 40°20' W 010°07'2220.8
2015-Jul-15 20:30N 40°42' W 010°07'47020.1
2015-Jul-14 21:05N 48°05' W 006°26'1121.3
2015-Jul-14 20:33N 48°15' W 006°17'4921.0
2015-Jul-14 18:13N 48°57' W 005°40'3017.5
2015-Jul-14 16:30N 49°12' W 004°60'  
Track history (hours):
 
Tides and Currents Weather Stations Pressure Air Temp Water Temp Dewpoint Dewpoint Depression Visibility Wind Speed Wind Dir Waves Ship Positions

CMA CGM Columba

Last reported at 2015-Jul-24 14:26 UTC. Time now 2015-Aug-03 02:42 UTC.
Position N 30°42' E 032°21'.
Warning: this ship's position is 9 days out of date.

Length 363 m; draft 15.4 m.

Type: Ship (hazmat cat A). MMSI: 235077448.

Date/timePositionNaut miles runAvg speedWind from/ knotsBaromVisibWave heightAir tempDewpointWater temp
2015-Jul-24 14:26N 30°42' E 032°21'1010.4
2015-Jul-24 13:28N 30°52' E 032°19'1010.6
2015-Jul-24 12:33N 31°02' E 032°19'10 9.6
2015-Jul-24 11:33N 31°12' E 032°20'9 8.4
2015-Jul-24 10:31N 31°20' E 032°23'7 6.7
2015-Jul-24 09:32N 31°26' E 032°21'1 0.1
2015-Jul-24 01:32N 31°27' E 032°20'0 0.0
2015-Jul-23 23:29N 31°27' E 032°20'0 0.0
2015-Jul-23 20:32N 31°27' E 032°20'0 0.1
2015-Jul-23 19:32N 31°27' E 032°20'0 0.1
2015-Jul-23 18:26N 31°27' E 032°20'0 0.0
2015-Jul-23 17:32N 31°27' E 032°20'4 1.9
2015-Jul-23 15:33N 31°30' E 032°21'1611.5
2015-Jul-23 14:09N 31°42' E 032°34'712.3
2015-Jul-23 13:33N 31°49' E 032°38'1313.2
2015-Jul-23 12:33N 31°60' E 032°47'1313.4
2015-Jul-23 11:33N 32°11' E 032°55'1612.8
2015-Jul-23 10:20N 32°24' E 033°06'1012.5
2015-Jul-23 09:33N 32°32' E 033°12'1212.3
2015-Jul-23 08:33N 32°42' E 033°21'1212.5
2015-Jul-23 07:33N 32°52' E 033°29'1212.3
2015-Jul-23 06:33N 33°03' E 033°37'1212.3
2015-Jul-23 05:33N 33°13' E 033°45'1212.5
2015-Jul-23 04:33N 33°19' E 033°58'1312.7
2015-Jul-23 03:33N 33°26' E 034°11'1312.9
2015-Jul-23 02:33N 33°32' E 034°25'1312.9
2015-Jul-23 01:33N 33°39' E 034°38'1313.1
2015-Jul-23 00:33N 33°45' E 034°52'1313.2
2015-Jul-22 23:33N 33°52' E 035°05'1312.6
2015-Jul-22 22:33N 33°56' E 035°20'1111.1
2015-Jul-22 21:33N 33°55' E 035°33'1 0.4
2015-Jul-22 20:22N 33°55' E 035°32'0 0.0
2015-Jul-22 19:31N 33°55' E 035°32'0 0.0
2015-Jul-22 18:28N 33°55' E 035°32'0 0.0
2015-Jul-22 17:31N 33°55' E 035°32'0 0.0
2015-Jul-22 16:31N 33°55' E 035°32'0 0.0
2015-Jul-22 15:31N 33°55' E 035°32'0 0.0
2015-Jul-22 09:04N 33°55' E 035°32'0 0.0
2015-Jul-22 03:16N 33°55' E 035°32'0 0.0
2015-Jul-22 02:31N 33°55' E 035°32'0 0.0
2015-Jul-22 01:31N 33°55' E 035°32'0 0.0
2015-Jul-22 00:25N 33°55' E 035°32'0 0.0
2015-Jul-21 23:31N 33°55' E 035°32'0 0.0
2015-Jul-21 21:25N 33°55' E 035°32'0 0.0
2015-Jul-21 20:31N 33°55' E 035°32'0 0.0
2015-Jul-21 04:28N 33°55' E 035°32'1 0.9
2015-Jul-21 03:26N 33°55' E 035°32'2 2.0
2015-Jul-21 02:33N 33°56' E 035°30'13 6.0
2015-Jul-21 00:21N 33°54' E 035°14'1518.6
2015-Jul-20 23:33N 33°54' E 034°56'1818.7
2015-Jul-20 22:33N 33°56' E 034°34'1918.9
2015-Jul-20 21:33N 33°57' E 034°11'1919.1
2015-Jul-20 20:33N 33°59' E 033°48'1919.4
2015-Jul-20 19:33N 34°00' E 033°25'1919.2
2015-Jul-20 18:33N 34°02' E 033°02'2019.7
2015-Jul-20 17:33N 34°03' E 032°38'2019.6
2015-Jul-20 16:33N 34°05' E 032°15'1919.1
2015-Jul-20 15:33N 34°06' E 031°52'1919.1
2015-Jul-20 14:33N 34°08' E 031°29'1919.0
2015-Jul-20 13:33N 34°09' E 031°06'1919.1
2015-Jul-20 12:33N 34°11' E 030°43'1919.0
2015-Jul-20 11:33N 34°12' E 030°20'1919.4
2015-Jul-20 10:33N 34°14' E 029°57'1919.4
2015-Jul-20 09:33N 34°15' E 029°33'2019.5
2015-Jul-20 08:33N 34°17' E 029°09'2019.8
2015-Jul-20 07:33N 34°19' E 028°45'2720.7
2015-Jul-20 06:14N 34°21' E 028°13'1420.1
2015-Jul-20 05:33N 34°22' E 027°56'2020.1
2015-Jul-20 04:33N 34°23' E 027°32'56719.5
2015-Jul-18 23:30N 36°03' E 016°09'1919.7
2015-Jul-18 22:32N 36°07' E 015°46'2019.5
2015-Jul-18 21:30N 36°10' E 015°21'1819.4
2015-Jul-18 20:33N 36°14' E 014°59'1919.7
2015-Jul-18 19:34N 36°19' E 014°36'2019.9
2015-Jul-18 18:34N 36°26' E 014°13'2019.8
2015-Jul-18 17:34N 36°32' E 013°49'2020.1
2015-Jul-18 16:34N 36°40' E 013°26'2020.0
2015-Jul-18 15:34N 36°47' E 013°03'2020.2
2015-Jul-18 14:34N 36°54' E 012°39'2020.5
2015-Jul-18 13:34N 37°01' E 012°15'2019.8
2015-Jul-18 12:34N 37°08' E 011°52'2019.5
2015-Jul-18 11:34N 37°15' E 011°29'2019.5
2015-Jul-18 10:33N 37°23' E 011°06'2020.0
2015-Jul-18 09:34N 37°28' E 010°42'2020.2
2015-Jul-18 08:33N 37°33' E 010°17'2020.2
2015-Jul-18 07:34N 37°32' E 009°52'2020.3
2015-Jul-18 06:33N 37°27' E 009°27'2020.3
2015-Jul-18 05:33N 37°22' E 009°02'4120.3
2015-Jul-18 03:31N 37°18' E 008°11'2020.6
2015-Jul-18 02:33N 37°18' E 007°45'2820.5
2015-Jul-18 01:10N 37°19' E 007°10'5220.0
2015-Jul-17 22:33N 37°16' E 006°04'6820.6
2015-Jul-17 19:15N 37°09' E 004°39'1420.0
2015-Jul-17 18:33N 37°08' E 004°22'2020.1
2015-Jul-17 17:33N 37°06' E 003°57'2120.4
2015-Jul-17 16:32N 37°04' E 003°30'1920.1
2015-Jul-17 15:33N 37°01' E 003°06'2020.3
2015-Jul-17 14:34N 36°57' E 002°41'1919.3
2015-Jul-17 13:33N 36°55' E 002°17'1919.1
2015-Jul-17 12:33N 36°52' E 001°54'2019.4
2015-Jul-17 11:32N 36°49' E 001°29'2020.0
2015-Jul-17 10:33N 36°46' E 001°05'2019.9
2015-Jul-17 09:33N 36°43' E 000°40'2019.6
2015-Jul-17 08:33N 36°40' E 000°16'2019.7
2015-Jul-17 07:33N 36°37' W 000°08'1919.5
2015-Jul-17 06:33N 36°34' W 000°32'1919.2
2015-Jul-17 05:34N 36°31' W 000°55'1919.0
2015-Jul-17 04:33N 36°28' W 001°19'1919.1
2015-Jul-17 03:34N 36°25' W 001°42'1919.3
2015-Jul-17 02:34N 36°22' W 002°06'2019.8
2015-Jul-17 01:34N 36°19' W 002°30'2019.8
2015-Jul-17 00:33N 36°15' W 002°54'2220.0
2015-Jul-16 23:28N 36°12' W 003°21'1820.1
2015-Jul-16 22:33N 36°10' W 003°43'20220.0
2015-Jul-16 12:25N 36°15' W 007°54'1820.0
2015-Jul-16 11:31N 36°21' W 008°15'2020.4
2015-Jul-16 10:33N 36°27' W 008°39'2020.1
2015-Jul-16 09:33N 36°31' W 009°03'1919.3
2015-Jul-16 08:33N 36°40' W 009°24'2019.9
2015-Jul-16 07:33N 36°58' W 009°36'2120.7
2015-Jul-16 06:33N 37°18' W 009°43'2020.2
2015-Jul-16 05:33N 37°37' W 009°49'2120.5
2015-Jul-16 04:33N 37°58' W 009°54'2020.6
2015-Jul-16 03:33N 38°18' W 009°59'2020.4
2015-Jul-16 02:34N 38°38' W 010°05'2020.2
2015-Jul-16 01:34N 38°58' W 010°07'2120.4
2015-Jul-16 00:33N 39°18' W 010°08'2320.8
2015-Jul-15 23:27N 39°41' W 010°07'1820.6
2015-Jul-15 22:33N 39°60' W 010°05'2120.6
2015-Jul-15 21:33N 40°20' W 010°07'2220.8
2015-Jul-15 20:30N 40°42' W 010°07'47020.1
2015-Jul-14 21:05N 48°05' W 006°26'1121.3
2015-Jul-14 20:33N 48°15' W 006°17'4921.0
2015-Jul-14 18:13N 48°57' W 005°40'3017.5
2015-Jul-14 16:30N 49°12' W 004°60'  

Dump ship's entire track history